Parkesburg, PA

12:20 AM EDT on July 30, 2016 (GMT -0400)
Storage Shed Valley | | Change Station

Elev 505 ft 39.96 °N, 75.90 °W | Updated 11 minutes ago

Mostly Cloudy
Mostly Cloudy
73.8 °F
Feels Like 71 °F
N
0.0
Wind Variable Wind from ESE

Today
High -- | Low -- °F
--% Chance of Precip.
Yesterday
High -- | Low -- °F
Precip. -- in
Pressure 29.98 in
Visibility 10.0 miles
Clouds Mostly Cloudy 4100 ft
Heat Index 71 °F
Dew Point 72 °F
Humidity 95%
Rainfall 0.00 in
Snow Depth Not available.
6:00 AM 8:18 PM
Waning Crescent, 16% visible
METAR KMQS 300415Z AUTO 07004KT 10SM BKN041 24/22 A2998 RMK AO2
Pressure 29.98 in
Visibility 10.0 miles
Clouds Mostly Cloudy 4100 ft
Heat Index 71 °F
Dew Point 72 °F
Humidity 95%
Rainfall 0.00 in
Snow Depth Not available.
6:00 AM 8:18 PM
Waning Crescent, 16% visible
METAR KMQS 300415Z AUTO 07004KT 10SM BKN041 24/22 A2998 RMK AO2

10-Day Weather Forecast

Almanac

Astronomy

Jul. 30, 2016 Rise Set
Actual Time
Civil Twilight
Nautical Twilight
Astronomical Twilight
Moon
Length of Visible Light
Length of Day
Tomorrow will be .
, % of the Moon is Illuminated

Today's Extremes

State Highs State Lows

Community

WunderPhotos

Upload Photos

1,928,505 photos uploaded!

WunderBlog® & News

Nearby

Air Quality

  Air Quality AQ Index Pollutant
Not available.

Snow Depth

Station Depth Elevation

Earthquake Activity

City Distance Mag. Time & Date
Minimum magnitude displayed is 2.5.

Coastal Water Temperatures

Place Temperature

Stations

Nearby Weather Stations

Station Location Temp. Windchill Dew Point Humidity Wind Precip. Elev Updated Type
                   

Watches & Warnings

There are currently no watches in effect.